Time;durP1;ratioP1;P1;durP2;ratioP2;P2;SDS_P1;SDS_P2;PMS_P1;PMS_P2;Temp;Humidity;BMP_temperature;BMP_pressure;BME280_temperature;BME280_humidity;BME280_pressure;Samples;Min_cycle;Max_cycle;Signal;HPM_P1;HPM_P2
2022/03/24 00:00:39;;;;;;;0.00;0.00;;;11.30;54.60;;;;;;4085927;29;20114;-70
2022/03/24 00:03:06;;;;;;;0.00;0.00;;;11.40;54.50;;;;;;4106880;28;20055;-69
2022/03/24 00:05:30;;;;;;;0.00;0.00;;;11.40;54.60;;;;;;4101588;28;20055;-70
2022/03/24 00:07:52;;;;;;;0.00;0.00;;;11.40;54.50;;;;;;4115086;28;20105;-70
2022/03/24 00:10:14;;;;;;;0.00;0.00;;;11.30;54.60;;;;;;4100121;28;20059;-71
2022/03/24 00:12:39;;;;;;;0.00;0.00;;;11.40;54.70;;;;;;4089857;29;20043;-71
2022/03/24 00:15:05;;;;;;;0.00;0.00;;;11.30;54.60;;;;;;4089226;29;20062;-70
2022/03/24 00:17:28;;;;;;;0.00;0.00;;;11.30;54.70;;;;;;4075633;29;20070;-71
2022/03/24 00:19:50;;;;;;;0.00;0.00;;;11.20;54.80;;;;;;4088651;29;20047;-72
2022/03/24 00:22:14;;;;;;;0.00;0.00;;;11.20;55.00;;;;;;4088471;29;20102;-71
2022/03/24 00:24:39;;;;;;;0.00;0.00;;;11.10;55.10;;;;;;4088726;29;20059;-69
2022/03/24 00:27:05;;;;;;;0.00;0.00;;;11.10;55.40;;;;;;4088885;29;20051;-70
2022/03/24 00:29:29;;;;;;;0.00;0.00;;;11.10;55.50;;;;;;4088609;29;20513;-69
2022/03/24 00:31:53;;;;;;;0.00;0.00;;;11.10;55.60;;;;;;4088533;29;20471;-69
2022/03/24 00:34:18;;;;;;;0.00;0.00;;;10.80;56.30;;;;;;4103669;28;20058;-71
2022/03/24 00:36:40;;;;;;;0.00;0.00;;;10.80;56.60;;;;;;4088737;29;20430;-69
2022/03/24 00:39:06;;;;;;;0.00;0.00;;;10.80;56.50;;;;;;4088958;29;20098;-70
2022/03/24 00:41:31;;;;;;;0.00;0.00;;;10.80;56.70;;;;;;4088404;29;20907;-72
2022/03/24 00:43:58;;;;;;;0.00;0.00;;;10.80;56.60;;;;;;4101924;29;20044;-70
2022/03/24 00:46:28;;;;;;;0.00;0.00;;;10.80;56.60;;;;;;4117040;28;20126;-72
2022/03/24 00:48:57;;;;;;;0.00;0.00;;;10.90;56.60;;;;;;4104412;28;20055;-71
2022/03/24 00:51:20;;;;;;;0.00;0.00;;;10.90;56.50;;;;;;4120060;28;20381;-70
2022/03/24 00:53:42;;;;;;;0.00;0.00;;;10.90;56.40;;;;;;4133576;28;20050;-69
2022/03/24 00:56:07;;;;;;;0.00;0.00;;;10.90;56.40;;;;;;4106533;28;20072;-68
2022/03/24 00:58:29;;;;;;;0.00;0.00;;;10.90;56.40;;;;;;4119522;28;20051;-70
2022/03/24 01:00:54;;;;;;;0.00;0.00;;;10.90;56.30;;;;;;4106830;28;20043;-68
2022/03/24 01:03:19;;;;;;;0.00;0.00;;;10.80;56.30;;;;;;4119755;28;20122;-71
2022/03/24 01:05:47;;;;;;;0.00;0.00;;;10.80;56.30;;;;;;4133161;28;20050;-71
2022/03/24 01:08:26;;;;;;;0.00;0.00;;;10.80;56.30;;;;;;4130549;28;20085;-72
2022/03/24 01:10:51;;;;;;;0.00;0.00;;;10.70;56.50;;;;;;4106977;28;20413;-69
2022/03/24 01:13:18;;;;;;;0.00;0.00;;;10.60;56.60;;;;;;4117074;28;20058;-70
2022/03/24 01:15:45;;;;;;;0.00;0.00;;;10.60;56.60;;;;;;4103948;28;20130;-70
2022/03/24 01:18:16;;;;;;;0.00;0.00;;;10.50;56.60;;;;;;4104148;28;20105;-71
2022/03/24 01:20:43;;;;;;;0.00;0.00;;;10.50;56.60;;;;;;4103763;28;20386;-68
2022/03/24 01:23:23;;;;;;;0.00;0.00;;;10.50;56.50;;;;;;4116301;28;20051;-67
2022/03/24 01:25:48;;;;;;;0.00;0.00;;;10.50;56.60;;;;;;4117286;28;20051;-70
2022/03/24 01:28:28;;;;;;;0.00;0.00;;;10.50;56.60;;;;;;4103214;28;20050;-72
2022/03/24 01:30:54;;;;;;;0.00;0.00;;;10.40;56.60;;;;;;4117717;28;20200;-69
2022/03/24 01:33:17;;;;;;;0.00;0.00;;;10.40;56.70;;;;;;4117677;28;20470;-69
2022/03/24 01:35:46;;;;;;;0.00;0.00;;;10.40;56.70;;;;;;4103778;28;20331;-69
2022/03/24 01:38:16;;;;;;;0.00;0.00;;;10.40;56.70;;;;;;4119731;28;20125;-68
2022/03/24 01:40:49;;;;;;;0.00;0.00;;;10.40;56.60;;;;;;4116803;28;20066;-68
2022/03/24 01:43:19;;;;;;;0.00;0.00;;;10.30;56.60;;;;;;4116664;28;20058;-67
2022/03/24 01:45:43;;;;;;;0.00;0.00;;;10.30;56.60;;;;;;4103390;28;20070;-72
2022/03/24 01:48:24;;;;;;;0.00;0.00;;;10.30;56.50;;;;;;4116118;28;20062;-72
2022/03/24 01:50:58;;;;;;;0.00;0.00;;;10.30;56.60;;;;;;4103148;28;20110;-70
2022/03/24 01:53:22;;;;;;;0.00;0.00;;;10.30;56.60;;;;;;4116630;28;20055;-70
2022/03/24 01:56:04;;;;;;;0.00;0.00;;;10.20;56.80;;;;;;4116521;28;20058;-70
2022/03/24 01:58:43;;;;;;;0.00;0.00;;;10.10;57.50;;;;;;4118539;28;20078;-73
2022/03/24 02:01:35;;;;;;;0.00;0.00;;;10.00;57.10;;;;;;4116577;28;20490;-69
2022/03/24 02:03:59;;;;;;;0.00;0.00;;;10.00;57.20;;;;;;4116314;28;20109;-69
2022/03/24 02:06:39;;;;;;;0.00;0.00;;;10.00;57.10;;;;;;4116608;28;20053;-70
2022/03/24 02:09:13;;;;;;;0.00;0.00;;;9.90;57.00;;;;;;4116877;28;20047;-71
2022/03/24 02:11:46;;;;;;;0.00;0.00;;;9.90;57.00;;;;;;4103444;28;20050;-71
2022/03/24 02:14:23;;;;;;;0.00;0.00;;;9.90;56.80;;;;;;4104250;28;20109;-71
2022/03/24 02:16:55;;;;;;;0.00;0.00;;;9.80;56.90;;;;;;4103992;28;20053;-71
2022/03/24 02:19:32;;;;;;;0.00;0.00;;;9.80;57.10;;;;;;4116224;28;20426;-70
2022/03/24 02:22:14;;;;;;;0.00;0.00;;;9.80;57.20;;;;;;4115648;28;20133;-68
2022/03/24 02:24:37;;;;;;;0.00;0.00;;;9.80;57.70;;;;;;4115935;28;20041;-68
2022/03/24 02:27:02;;;;;;;0.00;0.00;;;9.70;58.20;;;;;;4102676;28;20046;-70
2022/03/24 02:29:38;;;;;;;0.00;0.00;;;9.60;59.00;;;;;;4102621;28;20371;-69
2022/03/24 02:32:20;;;;;;;0.00;0.00;;;9.60;59.10;;;;;;4132498;28;20073;-68
2022/03/24 02:34:52;;;;;;;0.00;0.00;;;9.60;59.20;;;;;;4105066;28;20058;-70
2022/03/24 02:37:20;;;;;;;0.00;0.00;;;9.70;59.20;;;;;;4102620;28;20051;-68
2022/03/24 02:39:44;;;;;;;0.00;0.00;;;9.70;59.40;;;;;;4102766;28;20113;-71
2022/03/24 02:42:14;;;;;;;0.00;0.00;;;9.60;59.70;;;;;;4118268;28;20089;-69
2022/03/24 02:44:37;;;;;;;0.00;0.00;;;9.70;60.00;;;;;;4115928;28;20057;-70
2022/03/24 02:47:06;;;;;;;0.00;0.00;;;9.60;59.90;;;;;;4089784;28;20062;-70
2022/03/24 02:49:31;;;;;;;0.00;0.00;;;9.60;59.70;;;;;;4088987;28;20173;-71
2022/03/24 02:51:58;;;;;;;0.00;0.00;;;9.70;59.70;;;;;;4089077;28;20075;-70
2022/03/24 02:54:22;;;;;;;0.00;0.00;;;9.70;60.20;;;;;;4104764;28;20054;-70
2022/03/24 02:56:44;;;;;;;0.00;0.00;;;9.70;59.40;;;;;;4115739;28;20055;-68
2022/03/24 02:59:08;;;;;;;0.00;0.00;;;9.60;59.20;;;;;;4102213;28;20047;-72
2022/03/24 03:01:30;;;;;;;0.00;0.00;;;9.60;59.00;;;;;;4115663;28;20074;-68
2022/03/24 03:03:57;;;;;;;0.00;0.00;;;9.60;58.90;;;;;;4102494;28;20051;-70
2022/03/24 03:06:25;;;;;;;0.00;0.00;;;9.70;58.70;;;;;;4101880;28;20047;-71
2022/03/24 03:08:52;;;;;;;0.00;0.00;;;9.70;58.60;;;;;;4089183;28;20106;-70
2022/03/24 03:11:23;;;;;;;0.00;0.00;;;9.70;58.50;;;;;;4088660;28;20059;-69
2022/03/24 03:13:45;;;;;;;0.00;0.00;;;9.70;58.50;;;;;;4115367;28;20359;-68
2022/03/24 03:16:10;;;;;;;0.00;0.00;;;9.60;58.70;;;;;;4101426;28;20047;-68
2022/03/24 03:18:36;;;;;;;0.00;0.00;;;9.60;58.80;;;;;;4115322;28;20066;-67
2022/03/24 03:21:03;;;;;;;0.00;0.00;;;9.50;58.90;;;;;;4101708;28;20383;-70
2022/03/24 03:23:28;;;;;;;0.00;0.00;;;9.40;59.00;;;;;;4115292;28;20085;-68
2022/03/24 03:25:50;;;;;;;0.00;0.00;;;9.40;59.10;;;;;;4102027;28;20463;-70
2022/03/24 03:28:13;;;;;;;0.00;0.00;;;9.40;59.10;;;;;;4117528;28;20043;-70
2022/03/24 03:30:35;;;;;;;0.00;0.00;;;9.40;59.10;;;;;;4115415;28;20123;-68
2022/03/24 03:32:57;;;;;;;0.00;0.00;;;9.40;59.20;;;;;;4102026;28;20139;-68
2022/03/24 03:35:22;;;;;;;0.00;0.00;;;9.40;59.30;;;;;;4115337;28;20465;-69
2022/03/24 03:37:44;;;;;;;0.00;0.00;;;9.30;59.30;;;;;;4115334;28;20052;-69
2022/03/24 03:40:07;;;;;;;0.00;0.00;;;9.30;59.20;;;;;;4101521;28;20055;-69
2022/03/24 03:42:31;;;;;;;0.00;0.00;;;9.20;59.40;;;;;;4088820;28;20040;-68
2022/03/24 03:44:58;;;;;;;0.00;0.00;;;9.20;59.50;;;;;;4101946;28;20056;-71
2022/03/24 03:47:20;;;;;;;0.00;0.00;;;9.20;59.60;;;;;;4103388;28;20047;-71
2022/03/24 03:49:42;;;;;;;0.00;0.00;;;9.20;59.50;;;;;;4118327;28;20490;-72
2022/03/24 03:52:20;;;;;;;0.00;0.00;;;9.20;59.40;;;;;;4104471;28;20058;-70
2022/03/24 03:54:43;;;;;;;0.00;0.00;;;9.20;59.50;;;;;;4094329;28;20110;-69
2022/03/24 03:57:12;;;;;;;0.00;0.00;;;9.20;59.60;;;;;;4091591;28;20048;-69
2022/03/24 03:59:34;;;;;;;0.00;0.00;;;9.20;59.70;;;;;;4118281;28;20046;-68
2022/03/24 04:01:59;;;;;;;0.00;0.00;;;9.10;59.70;;;;;;4118188;28;20097;-70
2022/03/24 04:04:26;;;;;;;0.00;0.00;;;9.10;59.70;;;;;;4107056;28;20094;-69
2022/03/24 04:06:48;;;;;;;0.00;0.00;;;9.10;59.70;;;;;;4107485;28;20114;-68
2022/03/24 04:09:10;;;;;;;0.00;0.00;;;9.10;59.70;;;;;;4118529;28;20098;-68
2022/03/24 04:11:33;;;;;;;0.00;0.00;;;9.10;59.90;;;;;;4104811;28;20090;-71
2022/03/24 04:13:57;;;;;;;0.00;0.00;;;9.10;59.80;;;;;;4104817;28;20055;-69
2022/03/24 04:16:24;;;;;;;0.00;0.00;;;9.00;59.90;;;;;;4090880;28;20059;-69
2022/03/24 04:18:49;;;;;;;0.00;0.00;;;9.00;59.90;;;;;;4104598;28;20140;-70
2022/03/24 04:21:12;;;;;;;0.00;0.00;;;8.90;60.00;;;;;;4118285;28;20051;-71
2022/03/24 04:23:36;;;;;;;0.00;0.00;;;8.80;60.30;;;;;;4104454;28;20434;-71
2022/03/24 04:25:58;;;;;;;0.00;0.00;;;8.70;60.70;;;;;;4091335;28;20103;-69
2022/03/24 04:28:25;;;;;;;0.00;0.00;;;8.80;61.10;;;;;;4091352;28;20414;-69
2022/03/24 04:30:47;;;;;;;0.00;0.00;;;8.80;61.20;;;;;;4091243;28;20052;-69
2022/03/24 04:33:12;;;;;;;0.00;0.00;;;8.80;61.30;;;;;;4118030;28;20069;-71
2022/03/24 04:35:36;;;;;;;0.00;0.00;;;8.80;61.40;;;;;;4104267;28;20047;-69
2022/03/24 04:37:58;;;;;;;0.00;0.00;;;8.80;61.50;;;;;;4090969;28;20138;-71
2022/03/24 04:40:21;;;;;;;0.00;0.00;;;8.80;61.60;;;;;;4104154;28;20063;-68
2022/03/24 04:42:50;;;;;;;0.00;0.00;;;8.80;61.60;;;;;;4104220;28;20043;-68
2022/03/24 04:45:17;;;;;;;0.00;0.00;;;8.80;61.60;;;;;;4104238;28;20053;-71
2022/03/24 04:47:43;;;;;;;0.00;0.00;;;8.80;61.50;;;;;;4104209;28;20529;-68
2022/03/24 04:50:06;;;;;;;0.00;0.00;;;8.80;61.60;;;;;;4106158;28;20130;-72
2022/03/24 04:52:28;;;;;;;0.00;0.00;;;8.70;61.70;;;;;;4120389;28;20373;-69
2022/03/24 04:54:52;;;;;;;0.00;0.00;;;8.70;61.70;;;;;;4119992;28;20054;-68
2022/03/24 04:57:15;;;;;;;0.00;0.00;;;8.70;61.80;;;;;;4120184;28;20046;-71
2022/03/24 04:59:37;;;;;;;0.00;0.00;;;8.70;61.80;;;;;;4116279;28;20099;-69
2022/03/24 05:01:59;;;;;;;0.00;0.00;;;8.70;61.80;;;;;;4104201;28;20122;-69
2022/03/24 05:04:24;;;;;;;0.00;0.00;;;8.60;62.00;;;;;;4103724;28;20382;-70
2022/03/24 05:06:51;;;;;;;0.00;0.00;;;8.60;62.10;;;;;;4103840;28;20051;-71
2022/03/24 05:09:18;;;;;;;0.00;0.00;;;8.50;62.40;;;;;;4104093;28;20066;-67
2022/03/24 05:11:40;;;;;;;0.00;0.00;;;8.50;63.00;;;;;;4103761;28;20063;-70
2022/03/24 05:14:02;;;;;;;0.00;0.00;;;8.40;63.10;;;;;;4103917;28;20094;-70
2022/03/24 05:16:24;;;;;;;0.00;0.00;;;8.40;63.10;;;;;;4103352;28;20106;-69
2022/03/24 05:18:48;;;;;;;0.00;0.00;;;8.40;63.30;;;;;;4107044;28;20074;-71
2022/03/24 05:21:11;;;;;;;0.00;0.00;;;8.40;63.50;;;;;;4117311;28;20054;-70
2022/03/24 05:23:33;;;;;;;0.00;0.00;;;8.30;63.70;;;;;;4090234;28;20051;-69
2022/03/24 05:25:55;;;;;;;0.00;0.00;;;8.30;63.80;;;;;;4103738;28;20054;-72
2022/03/24 05:28:19;;;;;;;0.00;0.00;;;8.30;63.80;;;;;;4103196;28;20375;-69
2022/03/24 05:30:42;;;;;;;0.00;0.00;;;8.30;63.90;;;;;;4090175;28;20051;-72
2022/03/24 05:33:09;;;;;;;0.00;0.00;;;8.30;64.00;;;;;;4104193;28;20490;-67
2022/03/24 05:35:35;;;;;;;0.00;0.00;;;8.10;64.30;;;;;;4103714;28;20055;-69
2022/03/24 05:38:00;;;;;;;0.00;0.00;;;8.10;64.40;;;;;;4103603;28;20095;-69
2022/03/24 05:40:22;;;;;;;0.00;0.00;;;8.20;64.50;;;;;;4092637;28;20368;-70
2022/03/24 05:42:45;;;;;;;0.00;0.00;;;8.30;64.50;;;;;;4133221;28;20117;-67
2022/03/24 05:45:09;;;;;;;0.00;0.00;;;8.30;64.40;;;;;;4133068;28;20093;-69
2022/03/24 05:47:34;;;;;;;0.00;0.00;;;8.30;64.20;;;;;;4117000;28;20047;-70
2022/03/24 05:49:56;;;;;;;0.00;0.00;;;8.30;64.00;;;;;;4103318;28;20047;-69
2022/03/24 05:52:37;;;;;;;0.00;0.00;;;8.30;64.10;;;;;;4103084;28;20039;-70
2022/03/24 05:54:59;;;;;;;0.00;0.00;;;8.30;64.20;;;;;;4110690;28;20055;-69
2022/03/24 05:57:21;;;;;;;0.00;0.00;;;8.30;64.10;;;;;;4119614;28;20501;-70
2022/03/24 05:59:43;;;;;;;0.00;0.00;;;8.30;64.40;;;;;;4132959;28;20078;-69
2022/03/24 06:02:08;;;;;;;0.00;0.00;;;8.50;64.20;;;;;;4105573;28;20046;-69
2022/03/24 06:04:34;;;;;;;0.00;0.00;;;8.70;63.90;;;;;;4091147;28;20054;-69
2022/03/24 06:07:01;;;;;;;0.00;0.00;;;8.70;63.70;;;;;;4103186;28;20130;-70
2022/03/24 06:09:23;;;;;;;0.00;0.00;;;8.60;64.00;;;;;;4102808;28;20149;-67
2022/03/24 06:11:48;;;;;;;0.00;0.00;;;8.70;63.80;;;;;;4103325;28;20505;-71
2022/03/24 06:14:15;;;;;;;0.00;0.00;;;8.90;63.40;;;;;;4102856;28;20066;-72
2022/03/24 06:16:37;;;;;;;0.00;0.00;;;9.10;63.20;;;;;;4103270;28;20058;-71
2022/03/24 06:19:02;;;;;;;0.00;0.00;;;9.40;62.80;;;;;;4103162;28;20409;-73
2022/03/24 06:21:26;;;;;;;0.00;0.00;;;9.50;62.10;;;;;;4103140;28;20055;-72
2022/03/24 06:23:50;;;;;;;0.00;0.00;;;9.60;61.80;;;;;;4103311;28;20070;-71
2022/03/24 06:26:14;;;;;;;0.00;0.00;;;9.60;61.60;;;;;;4102699;28;20047;-71
2022/03/24 06:28:41;;;;;;;0.00;0.00;;;9.70;61.70;;;;;;4102853;28;20035;-72
2022/03/24 06:31:03;;;;;;;0.00;0.00;;;10.00;61.60;;;;;;4116434;28;20042;-71
2022/03/24 06:33:28;;;;;;;0.00;0.00;;;9.90;60.90;;;;;;4102864;28;20437;-72
2022/03/24 06:35:50;;;;;;;0.00;0.00;;;9.90;60.90;;;;;;4116260;28;20113;-71
2022/03/24 06:38:13;;;;;;;0.00;0.00;;;10.00;61.50;;;;;;4115853;28;20462;-71
2022/03/24 06:40:35;;;;;;;0.00;0.00;;;10.40;61.70;;;;;;4103143;28;20098;-70
2022/03/24 06:42:59;;;;;;;0.00;0.00;;;10.60;61.10;;;;;;4102863;28;20043;-71
2022/03/24 06:45:23;;;;;;;0.00;0.00;;;10.70;61.00;;;;;;4089566;28;20082;-71
2022/03/24 06:47:47;;;;;;;0.00;0.00;;;10.60;61.00;;;;;;4116214;28;20053;-72
2022/03/24 06:50:12;;;;;;;0.00;0.00;;;10.90;61.10;;;;;;4088489;28;20108;-72
2022/03/24 06:52:34;;;;;;;0.00;0.00;;;11.10;60.70;;;;;;4106788;28;20062;-72
2022/03/24 06:54:58;;;;;;;0.00;0.00;;;11.30;59.40;;;;;;4116006;28;20095;-72
2022/03/24 06:57:22;;;;;;;0.00;0.00;;;11.40;58.50;;;;;;4102454;28;20059;-73
2022/03/24 06:59:46;;;;;;;0.00;0.00;;;11.40;58.10;;;;;;4089372;28;20067;-71
2022/03/24 07:02:09;;;;;;;0.00;0.00;;;11.30;57.90;;;;;;4102336;28;20073;-73
2022/03/24 07:04:33;;;;;;;0.00;0.00;;;11.10;58.50;;;;;;4116362;28;20038;-73
2022/03/24 07:06:55;;;;;;;0.00;0.00;;;11.20;58.20;;;;;;4102690;28;20502;-74
2022/03/24 07:09:17;;;;;;;0.00;0.00;;;11.40;58.00;;;;;;4115947;28;20090;-74
2022/03/24 07:11:39;;;;;;;0.00;0.00;;;11.50;57.90;;;;;;4102549;28;20047;-71
2022/03/24 07:14:04;;;;;;;0.00;0.00;;;11.70;57.70;;;;;;4102575;28;20051;-74
2022/03/24 07:16:29;;;;;;;0.00;0.00;;;11.70;57.60;;;;;;4118310;28;20054;-72
2022/03/24 07:18:54;;;;;;;0.00;0.00;;;11.60;57.60;;;;;;4115843;28;20066;-73
2022/03/24 07:21:19;;;;;;;0.00;0.00;;;11.60;57.90;;;;;;4088431;28;20051;-73
2022/03/24 07:23:48;;;;;;;0.00;0.00;;;11.70;58.10;;;;;;4102291;28;20149;-74
2022/03/24 07:26:13;;;;;;;0.00;0.00;;;11.70;58.40;;;;;;4104987;28;20058;-72
2022/03/24 07:28:37;;;;;;;0.00;0.00;;;11.90;58.30;;;;;;4118607;28;20066;-76
2022/03/24 07:31:16;;;;;;;0.00;0.00;;;12.00;58.20;;;;;;4118158;28;20043;-73
2022/03/24 07:33:43;;;;;;;0.00;0.00;;;12.20;57.90;;;;;;4105056;28;20047;-73
2022/03/24 07:36:06;;;;;;;0.00;0.00;;;12.30;58.10;;;;;;4104260;28;20102;-71
2022/03/24 07:38:31;;;;;;;0.00;0.00;;;12.40;58.00;;;;;;4118150;28;20133;-75
2022/03/24 07:40:55;;;;;;;0.00;0.00;;;12.70;57.80;;;;;;4092066;28;20126;-71
2022/03/24 07:43:19;;;;;;;0.00;0.00;;;12.80;57.90;;;;;;4108495;28;20032;-73
2022/03/24 07:45:43;;;;;;;0.00;0.00;;;12.80;57.90;;;;;;4102202;28;20062;-71
2022/03/24 07:48:11;;;;;;;0.00;0.00;;;13.00;58.30;;;;;;4102101;28;20062;-73
2022/03/24 07:50:39;;;;;;;0.00;0.00;;;13.10;58.20;;;;;;4118090;28;20035;-73
2022/03/24 07:53:18;;;;;;;0.00;0.00;;;13.10;57.90;;;;;;4131849;28;20050;-73
2022/03/24 07:55:44;;;;;;;0.00;0.00;;;12.90;58.60;;;;;;4115489;28;20094;-72
2022/03/24 07:58:09;;;;;;;0.00;0.00;;;13.10;58.20;;;;;;4088798;28;20131;-74
2022/03/24 08:00:32;;;;;;;0.00;0.00;;;13.20;57.60;;;;;;4104369;28;20036;-77
2022/03/24 08:02:54;;;;;;;0.00;0.00;;;13.30;56.80;;;;;;4120405;28;20061;-72
2022/03/24 08:05:18;;;;;;;0.00;0.00;;;13.20;56.90;;;;;;4101902;28;20051;-73
2022/03/24 08:07:40;;;;;;;0.00;0.00;;;13.50;56.40;;;;;;4088913;28;20131;-73
2022/03/24 08:10:03;;;;;;;0.00;0.00;;;13.60;55.90;;;;;;4102218;28;20564;-72
2022/03/24 08:12:30;;;;;;;0.00;0.00;;;13.70;55.10;;;;;;4101596;28;20059;-73
2022/03/24 08:14:55;;;;;;;0.00;0.00;;;13.90;53.40;;;;;;4102495;28;20497;-73
2022/03/24 08:17:21;;;;;;;0.00;0.00;;;13.90;51.90;;;;;;4102041;28;20055;-72
2022/03/24 08:19:43;;;;;;;0.00;0.00;;;13.60;52.10;;;;;;4099615;28;20074;-74
2022/03/24 08:22:06;;;;;;;0.00;0.00;;;13.40;52.00;;;;;;4114718;28;20114;-72
2022/03/24 08:24:30;;;;;;;0.00;0.00;;;13.60;52.40;;;;;;4128918;28;20100;-74
2022/03/24 08:26:52;;;;;;;0.00;0.00;;;14.00;51.50;;;;;;4128650;28;20070;-71
2022/03/24 08:29:17;;;;;;;0.00;0.00;;;14.20;50.80;;;;;;4115532;28;20062;-73
2022/03/24 08:31:39;;;;;;;0.00;0.00;;;14.50;50.30;;;;;;4115180;28;20047;-74
2022/03/24 08:34:01;;;;;;;0.00;0.00;;;14.60;49.20;;;;;;4117676;28;20051;-73
2022/03/24 08:36:26;;;;;;;0.00;0.00;;;14.00;50.30;;;;;;4102176;28;20098;-72
2022/03/24 08:38:48;;;;;;;0.00;0.00;;;13.50;51.30;;;;;;4121006;28;20389;-73
2022/03/24 08:41:12;;;;;;;0.00;0.00;;;13.50;51.70;;;;;;4098070;28;20058;-73
2022/03/24 08:43:37;;;;;;;0.00;0.00;;;13.90;51.00;;;;;;4130314;28;20699;-73
2022/03/24 08:45:59;;;;;;;0.00;0.00;;;14.20;50.10;;;;;;4107613;28;20050;-73
2022/03/24 08:48:21;;;;;;;0.00;0.00;;;14.70;49.60;;;;;;4119887;28;20058;-71
2022/03/24 08:50:48;;;;;;;0.00;0.00;;;15.00;49.10;;;;;;4120459;28;20038;-73
2022/03/24 08:53:10;;;;;;;0.00;0.00;;;15.20;48.60;;;;;;4120457;28;20496;-73
2022/03/24 08:55:32;;;;;;;0.00;0.00;;;15.30;48.00;;;;;;4120382;28;20417;-72
2022/03/24 08:57:54;;;;;;;0.00;0.00;;;15.40;47.50;;;;;;4134048;28;20038;-73
2022/03/24 09:00:19;;;;;;;0.00;0.00;;;15.40;47.50;;;;;;4120010;28;20474;-74
2022/03/24 09:02:43;;;;;;;0.00;0.00;;;15.60;47.10;;;;;;4120348;28;20102;-72
2022/03/24 09:05:09;;;;;;;0.00;0.00;;;16.00;46.80;;;;;;4120769;28;20056;-72
2022/03/24 09:07:33;;;;;;;0.00;0.00;;;15.50;46.20;;;;;;4120262;28;20047;-74
2022/03/24 09:09:55;;;;;;;0.00;0.00;;;15.70;45.90;;;;;;4120123;28;20047;-73
2022/03/24 09:12:19;;;;;;;0.00;0.00;;;16.00;45.60;;;;;;4079202;28;20099;-73
2022/03/24 09:14:44;;;;;;;0.00;0.00;;;16.20;44.80;;;;;;4088603;28;20052;-72
2022/03/24 09:17:08;;;;;;;0.00;0.00;;;16.20;44.30;;;;;;4112283;28;20109;-71
2022/03/24 09:19:30;;;;;;;0.00;0.00;;;15.80;44.80;;;;;;4120306;28;20089;-71
2022/03/24 09:21:55;;;;;;;0.00;0.00;;;16.00;44.80;;;;;;4120275;28;20051;-71
2022/03/24 09:24:17;;;;;;;0.00;0.00;;;16.20;44.70;;;;;;4093130;28;20118;-71
2022/03/24 09:26:44;;;;;;;0.00;0.00;;;16.20;44.40;;;;;;4115134;28;20055;-73
2022/03/24 09:29:10;;;;;;;0.00;0.00;;;16.10;44.80;;;;;;4111975;28;20050;-71
2022/03/24 09:31:38;;;;;;;0.00;0.00;;;15.90;45.40;;;;;;4093630;28;20138;-72
2022/03/24 09:34:03;;;;;;;0.00;0.00;;;15.60;45.60;;;;;;4093938;28;20534;-74
2022/03/24 09:36:25;;;;;;;0.00;0.00;;;16.20;45.20;;;;;;4076818;28;20059;-73
2022/03/24 09:38:47;;;;;;;0.00;0.00;;;16.20;44.10;;;;;;4109737;28;20532;-75
2022/03/24 09:41:14;;;;;;;0.00;0.00;;;15.80;44.70;;;;;;4119879;28;20117;-75
2022/03/24 09:43:37;;;;;;;0.00;0.00;;;15.80;45.00;;;;;;4119779;28;20067;-74
2022/03/24 09:45:59;;;;;;;0.00;0.00;;;16.30;44.20;;;;;;4119275;28;20053;-73
2022/03/24 09:48:21;;;;;;;0.00;0.00;;;16.60;43.90;;;;;;4119275;28;20046;-73
2022/03/24 09:50:47;;;;;;;0.00;0.00;;;16.50;43.00;;;;;;4119473;28;20465;-73
2022/03/24 09:53:12;;;;;;;0.00;0.00;;;16.70;42.60;;;;;;4133280;28;20050;-73
2022/03/24 09:55:36;;;;;;;0.00;0.00;;;17.10;42.10;;;;;;4094476;28;20051;-71
2022/03/24 09:57:59;;;;;;;0.00;0.00;;;17.30;41.20;;;;;;4116771;28;20102;-71
2022/03/24 10:00:34;;;;;;;0.00;0.00;;;17.30;40.90;;;;;;4103140;28;20043;-71
2022/03/24 10:03:11;;;;;;;0.00;0.00;;;17.30;41.60;;;;;;4097809;28;20051;-71
2022/03/24 10:05:34;;;;;;;0.00;0.00;;;16.90;42.50;;;;;;4106190;28;20097;-75
2022/03/24 10:08:06;;;;;;;0.00;0.00;;;16.80;42.90;;;;;;4119126;28;20154;-73
2022/03/24 10:10:34;;;;;;;0.00;0.00;;;16.60;42.90;;;;;;4103241;28;20145;-74
2022/03/24 10:12:56;;;;;;;0.00;0.00;;;16.60;43.20;;;;;;4103112;28;20073;-73
2022/03/24 10:15:19;;;;;;;0.00;0.00;;;16.60;43.00;;;;;;4110557;28;20051;-71
2022/03/24 10:17:57;;;;;;;0.00;0.00;;;16.60;43.60;;;;;;4090073;28;20110;-73
2022/03/24 10:20:23;;;;;;;0.00;0.00;;;16.40;43.30;;;;;;4100185;29;20126;-73
2022/03/24 10:22:59;;;;;;;0.00;0.00;;;16.40;44.10;;;;;;4074181;29;20490;-75
2022/03/24 10:25:36;;;;;;;0.00;0.00;;;16.60;43.30;;;;;;4074392;29;20044;-73
2022/03/24 10:28:05;;;;;;;0.00;0.00;;;16.80;43.20;;;;;;4087294;29;20063;-70
2022/03/24 10:30:27;;;;;;;0.00;0.00;;;17.20;43.70;;;;;;4086921;29;20056;-71
2022/03/24 10:32:59;;;;;;;0.00;0.00;;;17.80;42.40;;;;;;4074327;29;20048;-71
2022/03/24 10:35:22;;;;;;;0.00;0.00;;;18.60;41.90;;;;;;4074207;29;20155;-74
2022/03/24 10:37:52;;;;;;;0.00;0.00;;;19.10;40.60;;;;;;4074567;29;20180;-74
2022/03/24 10:40:14;;;;;;;0.00;0.00;;;19.50;40.80;;;;;;4086945;28;20458;-74
2022/03/24 10:42:40;;;;;;;0.00;0.00;;;20.10;40.30;;;;;;4098327;28;20462;-73
2022/03/24 10:45:05;;;;;;;0.00;0.00;;;20.10;39.80;;;;;;4119052;28;20047;-72
2022/03/24 10:47:45;;;;;;;0.00;0.00;;;20.30;40.10;;;;;;4132196;28;20078;-72
2022/03/24 10:50:22;;;;;;;0.00;0.00;;;20.90;39.70;;;;;;4117889;28;20058;-72
2022/03/24 10:52:51;;;;;;;0.00;0.00;;;20.80;38.30;;;;;;4105926;28;20557;-71
2022/03/24 10:55:35;;;;;;;0.00;0.00;;;20.90;38.80;;;;;;4116564;28;20054;-73
2022/03/24 10:57:58;;;;;;;0.00;0.00;;;21.30;37.30;;;;;;4089370;28;20441;-71
2022/03/24 11:00:24;;;;;;;0.00;0.00;;;21.70;36.90;;;;;;4103001;28;20094;-72
2022/03/24 11:02:49;;;;;;;0.00;0.00;;;22.20;36.20;;;;;;4102790;28;20187;-73
2022/03/24 11:05:13;;;;;;;0.00;0.00;;;22.70;35.50;;;;;;4116487;28;20097;-72
2022/03/24 11:07:38;;;;;;;0.00;0.00;;;23.10;34.80;;;;;;4115938;28;20113;-74
2022/03/24 11:10:16;;;;;;;0.00;0.00;;;22.60;34.20;;;;;;4116130;28;20043;-74
2022/03/24 11:12:39;;;;;;;0.00;0.00;;;22.00;34.80;;;;;;4102295;28;20051;-73
2022/03/24 11:15:09;;;;;;;0.00;0.00;;;21.20;35.10;;;;;;4102724;28;20059;-72
2022/03/24 11:17:38;;;;;;;0.00;0.00;;;20.40;36.00;;;;;;4102414;28;20103;-71
2022/03/24 11:20:06;;;;;;;0.00;0.00;;;20.00;36.00;;;;;;4102374;28;20043;-71
2022/03/24 11:22:50;;;;;;;0.00;0.00;;;20.50;37.10;;;;;;4102122;28;20118;-72
2022/03/24 11:25:16;;;;;;;0.00;0.00;;;21.30;36.50;;;;;;4102469;28;20074;-71
2022/03/24 11:27:39;;;;;;;0.00;0.00;;;21.50;36.50;;;;;;4102378;28;20063;-70
2022/03/24 11:30:03;;;;;;;0.00;0.00;;;22.30;35.50;;;;;;4089001;28;20062;-71
2022/03/24 11:32:28;;;;;;;0.00;0.00;;;22.80;35.10;;;;;;4088912;28;20110;-71
2022/03/24 11:34:55;;;;;;;0.00;0.00;;;23.30;34.40;;;;;;4102227;28;20102;-73
2022/03/24 11:37:17;;;;;;;0.00;0.00;;;23.80;33.40;;;;;;4102297;28;20047;-73
2022/03/24 11:40:25;;;;;;;0.00;0.00;;;23.50;33.00;;;;;;4102434;28;20051;-71
2022/03/24 11:43:00;;;;;;;0.00;0.00;;;23.60;32.40;;;;;;4098352;28;20051;-71
2022/03/24 11:45:33;;;;;;;0.00;0.00;;;23.50;32.30;;;;;;4089002;28;20048;-71
2022/03/24 11:48:01;;;;;;;0.00;0.00;;;23.60;32.10;;;;;;4102236;28;20110;-71
2022/03/24 11:50:49;;;;;;;0.00;0.00;;;23.10;32.30;;;;;;4115362;28;20823;-72
2022/03/24 11:53:40;;;;;;;0.00;0.00;;;22.60;32.70;;;;;;4116038;28;20130;-73
2022/03/24 11:56:06;;;;;;;0.00;0.00;;;22.00;33.30;;;;;;4086708;29;20126;-70
2022/03/24 11:58:36;;;;;;;0.00;0.00;;;21.90;33.50;;;;;;4115487;28;20130;-70
2022/03/24 12:01:21;;;;;;;0.00;0.00;;;21.80;33.40;;;;;;4102461;28;20051;-70
2022/03/24 12:03:48;;;;;;;0.00;0.00;;;21.80;33.90;;;;;;4089089;28;20055;-70
2022/03/24 12:06:13;;;;;;;0.00;0.00;;;21.50;34.80;;;;;;4115781;28;20125;-69
2022/03/24 12:09:07;;;;;;;0.00;0.00;;;21.40;35.90;;;;;;4118516;28;20059;-68
2022/03/24 12:11:34;;;;;;;0.00;0.00;;;21.30;36.00;;;;;;4130975;28;20077;-71
2022/03/24 12:13:58;;;;;;;0.00;0.00;;;21.20;36.30;;;;;;4090505;28;20055;-70
2022/03/24 12:16:23;;;;;;;0.00;0.00;;;21.10;36.50;;;;;;4107253;28;20058;-72
2022/03/24 12:18:48;;;;;;;0.00;0.00;;;20.90;37.50;;;;;;4122107;28;20074;-71
2022/03/24 12:21:23;;;;;;;0.00;0.00;;;21.00;37.80;;;;;;4121086;28;20413;-72
2022/03/24 12:24:08;;;;;;;0.00;0.00;;;21.10;37.90;;;;;;4108776;28;20042;-72
2022/03/24 12:26:35;;;;;;;0.00;0.00;;;21.00;37.10;;;;;;4134003;28;20042;-73
2022/03/24 12:29:12;;;;;;;0.00;0.00;;;21.00;37.00;;;;;;4120867;28;20058;-72
2022/03/24 12:31:53;;;;;;;0.00;0.00;;;21.00;37.10;;;;;;4120918;28;20062;-73
2022/03/24 12:34:15;;;;;;;0.00;0.00;;;21.10;37.40;;;;;;4120482;28;20090;-72
2022/03/24 12:36:40;;;;;;;0.00;0.00;;;20.90;37.50;;;;;;4120792;28;20039;-71
2022/03/24 12:39:05;;;;;;;0.00;0.00;;;20.80;37.80;;;;;;4107661;28;20038;-73
2022/03/24 12:41:27;;;;;;;0.00;0.00;;;20.80;37.80;;;;;;4107139;28;20114;-72
2022/03/24 12:44:05;;;;;;;0.00;0.00;;;20.90;37.60;;;;;;4107463;28;20062;-71
2022/03/24 12:46:44;;;;;;;0.00;0.00;;;21.00;37.60;;;;;;4120592;28;20047;-73